Home > Products > Valid Products > TAF

000
FTUS44 KMOB 241725
TAFPNS
TAF
KPNS 241725Z 2418/2518 13015G26KT P6SM VCTS SCT020CB BKN030
      TEMPO 2419/2423 3SM TSRA BKN020CB
     FM250100 14010KT P6SM BKN025 PROB30 2506/2512 3SM SHRA BKN020
     FM251200 13010KT P6SM VCSH BKN025 PROB30 2512/2518 3SM SHRA
      BKN020=



000
FTUS44 KMOB 241725
TAFMOB
TAF
KMOB 241725Z 2418/2518 15016G25KT P6SM VCTS SCT025CB BKN045
      TEMPO 2419/2423 3SM TSRA BKN020CB
     FM250100 15010KT P6SM BKN025 PROB30 2506/2512 3SM SHRA BKN020
     FM251200 15010KT P6SM VCSH BKN025 PROB30 2512/2518 3SM SHRA
      BKN020=



000
FTUS44 KMOB 241725
TAFMOB
TAF
KMOB 241725Z 2418/2518 15016G25KT P6SM VCTS SCT025CB BKN045
      TEMPO 2419/2423 3SM TSRA BKN020CB
     FM250100 15010KT P6SM BKN025 PROB30 2506/2512 3SM SHRA BKN020
     FM251200 15010KT P6SM VCSH BKN025 PROB30 2512/2518 3SM SHRA
      BKN020=



000
FTUS44 KMOB 241725
TAFPNS
TAF
KPNS 241725Z 2418/2518 13015G26KT P6SM VCTS SCT020CB BKN030
      TEMPO 2419/2423 3SM TSRA BKN020CB
     FM250100 14010KT P6SM BKN025 PROB30 2506/2512 3SM SHRA BKN020
     FM251200 13010KT P6SM VCSH BKN025 PROB30 2512/2518 3SM SHRA
      BKN020=



000
FTUS44 KMOB 241203 AAA
TAFMOB
TAF AMD
KMOB 241203Z 2412/2512 11004KT 4SM BR SCT025 BKN045 BKN080
      TEMPO 2414/2418 5SM TSRA BKN010CB OVC020
     FM241800 14015KT P6SM VCTS BKN020CB
     FM250100 15010KT P6SM BKN030=



000
FTUS44 KMOB 241203 AAA
TAFMOB
TAF AMD
KMOB 241203Z 2412/2512 11004KT 4SM BR SCT025 BKN045 BKN080
      TEMPO 2414/2418 5SM TSRA BKN010CB OVC020
     FM241800 14015KT P6SM VCTS BKN020CB
     FM250100 15010KT P6SM BKN030=



000
FTUS44 KMOB 241203 AAA
TAFPNS
TAF AMD
KPNS 241203Z 2412/2512 09007KT 5SM BR SCT015 OVC020
      TEMPO 2414/2418 5SM TSRA BKN010CB OVC020
     FM241800 14015KT P6SM VCTS BKN020CB
     FM250100 15010KT P6SM BKN030=



000
FTUS44 KMOB 241203 AAA
TAFPNS
TAF AMD
KPNS 241203Z 2412/2512 09007KT 5SM BR SCT015 OVC020
      TEMPO 2414/2418 5SM TSRA BKN010CB OVC020
     FM241800 14015KT P6SM VCTS BKN020CB
     FM250100 15010KT P6SM BKN030=



000
FTUS44 KMOB 241203 AAA
TAFMOB
TAF AMD
KMOB 241203Z 2412/2512 11004KT 4SM BR SCT025 BKN045 BKN080
      TEMPO 2414/2418 5SM TSRA BKN010CB OVC020
     FM241800 14015KT P6SM VCTS BKN020CB
     FM250100 15010KT P6SM BKN030=



000
FTUS44 KMOB 241203 AAA
TAFMOB
TAF AMD
KMOB 241203Z 2412/2512 11004KT 4SM BR SCT025 BKN045 BKN080
      TEMPO 2414/2418 5SM TSRA BKN010CB OVC020
     FM241800 14015KT P6SM VCTS BKN020CB
     FM250100 15010KT P6SM BKN030=



000
FTUS44 KMOB 241203 AAA
TAFPNS
TAF AMD
KPNS 241203Z 2412/2512 09007KT 5SM BR SCT015 OVC020
      TEMPO 2414/2418 5SM TSRA BKN010CB OVC020
     FM241800 14015KT P6SM VCTS BKN020CB
     FM250100 15010KT P6SM BKN030=



000
FTUS44 KMOB 241203 AAA
TAFPNS
TAF AMD
KPNS 241203Z 2412/2512 09007KT 5SM BR SCT015 OVC020
      TEMPO 2414/2418 5SM TSRA BKN010CB OVC020
     FM241800 14015KT P6SM VCTS BKN020CB
     FM250100 15010KT P6SM BKN030=



000
FTUS44 KMOB 241134
TAFMOB
TAF
KMOB 241134Z 2412/2512 09004KT 5SM BR FEW007 SCT020 BKN250
      TEMPO 2414/2418 5SM TSRA BKN010CB OVC020
     FM241800 14015KT P6SM VCTS BKN020CB
     FM250100 15010KT P6SM BKN030=



000
FTUS44 KMOB 241134
TAFMOB
TAF
KMOB 241134Z 2412/2512 09004KT 5SM BR FEW007 SCT020 BKN250
      TEMPO 2414/2418 5SM TSRA BKN010CB OVC020
     FM241800 14015KT P6SM VCTS BKN020CB
     FM250100 15010KT P6SM BKN030=



000
FTUS44 KMOB 241134
TAFPNS
TAF
KPNS 241134Z 2412/2512 11007KT P6SM TSRA BKN015CB OVC025
      TEMPO 2414/2418 5SM TSRA BKN010CB OVC020
     FM241800 14015KT P6SM VCTS BKN020CB
     FM250100 15010KT P6SM BKN030=



000
FTUS44 KMOB 241134
TAFPNS
TAF
KPNS 241134Z 2412/2512 11007KT P6SM TSRA BKN015CB OVC025
      TEMPO 2414/2418 5SM TSRA BKN010CB OVC020
     FM241800 14015KT P6SM VCTS BKN020CB
     FM250100 15010KT P6SM BKN030=



000
FTUS44 KMOB 241134
TAFMOB
TAF
KMOB 241134Z 2412/2512 09004KT 5SM BR FEW007 SCT020 BKN250
      TEMPO 2414/2418 5SM TSRA BKN010CB OVC020
     FM241800 14015KT P6SM VCTS BKN020CB
     FM250100 15010KT P6SM BKN030=



000
FTUS44 KMOB 241134
TAFPNS
TAF
KPNS 241134Z 2412/2512 11007KT P6SM TSRA BKN015CB OVC025
      TEMPO 2414/2418 5SM TSRA BKN010CB OVC020
     FM241800 14015KT P6SM VCTS BKN020CB
     FM250100 15010KT P6SM BKN030=



000
FTUS44 KMOB 241134
TAFPNS
TAF
KPNS 241134Z 2412/2512 11007KT P6SM TSRA BKN015CB OVC025
      TEMPO 2414/2418 5SM TSRA BKN010CB OVC020
     FM241800 14015KT P6SM VCTS BKN020CB
     FM250100 15010KT P6SM BKN030=



000
FTUS44 KMOB 241134
TAFMOB
TAF
KMOB 241134Z 2412/2512 09004KT 5SM BR FEW007 SCT020 BKN250
      TEMPO 2414/2418 5SM TSRA BKN010CB OVC020
     FM241800 14015KT P6SM VCTS BKN020CB
     FM250100 15010KT P6SM BKN030=



000
FTUS44 KMOB 240528
TAFMOB
TAF
KMOB 240528Z 2406/2506 12007KT P6SM SCT250
     FM241200 10010KT P6SM BKN050
     FM241800 14015KT P6SM VCTS BKN020CB PROB30 2419/2424 VRB15KT
      TSRA BKN010CB
     FM250100 15010KT P6SM BKN030=



000
FTUS44 KMOB 240528
TAFMOB
TAF
KMOB 240528Z 2406/2506 12007KT P6SM SCT250
     FM241200 10010KT P6SM BKN050
     FM241800 14015KT P6SM VCTS BKN020CB PROB30 2419/2424 VRB15KT
      TSRA BKN010CB
     FM250100 15010KT P6SM BKN030=



000
FTUS44 KMOB 240528
TAFPNS
TAF
KPNS 240528Z 2406/2506 13008KT P6SM SKC
     FM241200 10010KT P6SM BKN050
     FM241800 14015KT P6SM VCTS BKN020CB PROB30 2419/2424 VRB15KT
      TSRA BKN010CB
     FM250100 15010KT P6SM BKN030=



000
FTUS44 KMOB 240528
TAFPNS
TAF
KPNS 240528Z 2406/2506 13008KT P6SM SKC
     FM241200 10010KT P6SM BKN050
     FM241800 14015KT P6SM VCTS BKN020CB PROB30 2419/2424 VRB15KT
      TSRA BKN010CB
     FM250100 15010KT P6SM BKN030=



000
FTUS44 KMOB 232322
TAFPNS
TAF
KPNS 232322Z 2400/2424 15012KT P6SM SCT050
     FM240300 11006KT P6SM FEW060 BKN250
     FM241200 10010KT P6SM BKN050
     FM241800 14015KT P6SM VCTS BKN020CB=



000
FTUS44 KMOB 232322
TAFMOB
TAF
KMOB 232322Z 2400/2424 15011KT P6SM SCT050
     FM240400 11006KT P6SM FEW060 BKN250
     FM241200 10010KT P6SM BKN050
     FM241800 14015KT P6SM VCTS BKN020CB=



000
FTUS44 KMOB 232322
TAFMOB
TAF
KMOB 232322Z 2400/2424 15011KT P6SM SCT050
     FM240400 11006KT P6SM FEW060 BKN250
     FM241200 10010KT P6SM BKN050
     FM241800 14015KT P6SM VCTS BKN020CB=



000
FTUS44 KMOB 232322
TAFPNS
TAF
KPNS 232322Z 2400/2424 15012KT P6SM SCT050
     FM240300 11006KT P6SM FEW060 BKN250
     FM241200 10010KT P6SM BKN050
     FM241800 14015KT P6SM VCTS BKN020CB=



000
FTUS44 KMOB 232322
TAFPNS
TAF
KPNS 232322Z 2400/2424 15012KT P6SM SCT050
     FM240300 11006KT P6SM FEW060 BKN250
     FM241200 10010KT P6SM BKN050
     FM241800 14015KT P6SM VCTS BKN020CB=



000
FTUS44 KMOB 232322
TAFMOB
TAF
KMOB 232322Z 2400/2424 15011KT P6SM SCT050
     FM240400 11006KT P6SM FEW060 BKN250
     FM241200 10010KT P6SM BKN050
     FM241800 14015KT P6SM VCTS BKN020CB=



000
FTUS44 KMOB 232322
TAFMOB
TAF
KMOB 232322Z 2400/2424 15011KT P6SM SCT050
     FM240400 11006KT P6SM FEW060 BKN250
     FM241200 10010KT P6SM BKN050
     FM241800 14015KT P6SM VCTS BKN020CB=



000
FTUS44 KMOB 232322
TAFPNS
TAF
KPNS 232322Z 2400/2424 15012KT P6SM SCT050
     FM240300 11006KT P6SM FEW060 BKN250
     FM241200 10010KT P6SM BKN050
     FM241800 14015KT P6SM VCTS BKN020CB=



000
FTUS44 KMOB 231740
TAFPNS
TAF
KPNS 231740Z 2318/2418 14012G18KT P6SM FEW060 SCT250
     FM240300 11006KT P6SM FEW060 BKN250=



000
FTUS44 KMOB 231740
TAFPNS
TAF
KPNS 231740Z 2318/2418 14012G18KT P6SM FEW060 SCT250
     FM240300 11006KT P6SM FEW060 BKN250=



000
FTUS44 KMOB 231740
TAFMOB
TAF
KMOB 231740Z 2318/2418 11007KT P6SM SCT060 SCT250
     FM232100 14011KT P6SM SCT060 SCT250
     FM240400 11006KT P6SM FEW060 BKN250=



000
FTUS44 KMOB 231740
TAFMOB
TAF
KMOB 231740Z 2318/2418 11007KT P6SM SCT060 SCT250
     FM232100 14011KT P6SM SCT060 SCT250
     FM240400 11006KT P6SM FEW060 BKN250=



000
FTUS44 KMOB 231740
TAFMOB
TAF
KMOB 231740Z 2318/2418 11007KT P6SM SCT060 SCT250
     FM232100 14011KT P6SM SCT060 SCT250
     FM240400 11006KT P6SM FEW060 BKN250=



000
FTUS44 KMOB 231740
TAFPNS
TAF
KPNS 231740Z 2318/2418 14012G18KT P6SM FEW060 SCT250
     FM240300 11006KT P6SM FEW060 BKN250=



000
FTUS44 KMOB 231740
TAFPNS
TAF
KPNS 231740Z 2318/2418 14012G18KT P6SM FEW060 SCT250
     FM240300 11006KT P6SM FEW060 BKN250=



000
FTUS44 KMOB 231740
TAFMOB
TAF
KMOB 231740Z 2318/2418 11007KT P6SM SCT060 SCT250
     FM232100 14011KT P6SM SCT060 SCT250
     FM240400 11006KT P6SM FEW060 BKN250=



000
FTUS44 KMOB 231134
TAFMOB
TAF
KMOB 231134Z 2312/2412 VRB03KT P6SM SKC
     FM231500 11008KT P6SM SCT060 SCT250
     FM240300 12006KT P6SM SKC=



000
FTUS44 KMOB 231134
TAFPNS
TAF
KPNS 231134Z 2312/2412 VRB03KT P6SM SKC
     FM231600 14009KT P6SM SCT060 SCT250
     FM240300 12006KT P6SM SKC=



000
FTUS44 KMOB 231134
TAFPNS
TAF
KPNS 231134Z 2312/2412 VRB03KT P6SM SKC
     FM231600 14009KT P6SM SCT060 SCT250
     FM240300 12006KT P6SM SKC=



000
FTUS44 KMOB 231134
TAFMOB
TAF
KMOB 231134Z 2312/2412 VRB03KT P6SM SKC
     FM231500 11008KT P6SM SCT060 SCT250
     FM240300 12006KT P6SM SKC=



000
FTUS44 KMOB 231134
TAFPNS
TAF
KPNS 231134Z 2312/2412 VRB03KT P6SM SKC
     FM231600 14009KT P6SM SCT060 SCT250
     FM240300 12006KT P6SM SKC=



000
FTUS44 KMOB 231134
TAFMOB
TAF
KMOB 231134Z 2312/2412 VRB03KT P6SM SKC
     FM231500 11008KT P6SM SCT060 SCT250
     FM240300 12006KT P6SM SKC=



000
FTUS44 KMOB 231134
TAFMOB
TAF
KMOB 231134Z 2312/2412 VRB03KT P6SM SKC
     FM231500 11008KT P6SM SCT060 SCT250
     FM240300 12006KT P6SM SKC=



000
FTUS44 KMOB 231134
TAFPNS
TAF
KPNS 231134Z 2312/2412 VRB03KT P6SM SKC
     FM231600 14009KT P6SM SCT060 SCT250
     FM240300 12006KT P6SM SKC=



000
FTUS44 KMOB 230527
TAFMOB
TAF
KMOB 230527Z 2306/2406 05006KT P6SM SCT050
     FM231200 07005KT P6SM FEW060 SCT250
     FM231500 11008KT P6SM SCT060 SCT250
     FM240300 12006KT P6SM SKC=



000
FTUS44 KMOB 230527
TAFPNS
TAF
KPNS 230527Z 2306/2406 03005KT P6SM SKC
     FM231600 14009KT P6SM SCT060 SCT250
     FM240300 12006KT P6SM SKC=



000
FTUS44 KMOB 230527
TAFPNS
TAF
KPNS 230527Z 2306/2406 03005KT P6SM SKC
     FM231600 14009KT P6SM SCT060 SCT250
     FM240300 12006KT P6SM SKC=



000
FTUS44 KMOB 230527
TAFMOB
TAF
KMOB 230527Z 2306/2406 05006KT P6SM SCT050
     FM231200 07005KT P6SM FEW060 SCT250
     FM231500 11008KT P6SM SCT060 SCT250
     FM240300 12006KT P6SM SKC=



000
FTUS44 KMOB 230527
TAFPNS
TAF
KPNS 230527Z 2306/2406 03005KT P6SM SKC
     FM231600 14009KT P6SM SCT060 SCT250
     FM240300 12006KT P6SM SKC=



000
FTUS44 KMOB 230527
TAFMOB
TAF
KMOB 230527Z 2306/2406 05006KT P6SM SCT050
     FM231200 07005KT P6SM FEW060 SCT250
     FM231500 11008KT P6SM SCT060 SCT250
     FM240300 12006KT P6SM SKC=



000
FTUS44 KMOB 230527
TAFMOB
TAF
KMOB 230527Z 2306/2406 05006KT P6SM SCT050
     FM231200 07005KT P6SM FEW060 SCT250
     FM231500 11008KT P6SM SCT060 SCT250
     FM240300 12006KT P6SM SKC=



000
FTUS44 KMOB 230527
TAFPNS
TAF
KPNS 230527Z 2306/2406 03005KT P6SM SKC
     FM231600 14009KT P6SM SCT060 SCT250
     FM240300 12006KT P6SM SKC=



000
FTUS44 KMOB 222340
TAFMOB
TAF
KMOB 222340Z 2300/2324 02006KT P6SM SCT060 SCT250
     FM231200 07005KT P6SM FEW060 SCT250
     FM231500 11008KT P6SM SCT060 SCT250=



000
FTUS44 KMOB 222340
TAFPNS
TAF
KPNS 222340Z 2300/2324 35007KT P6SM SCT060 SCT250
     FM230300 05004KT P6SM FEW060 SCT250
     FM231600 14009KT P6SM SCT060 SCT250=



000
FTUS44 KMOB 222340
TAFPNS
TAF
KPNS 222340Z 2300/2324 35007KT P6SM SCT060 SCT250
     FM230300 05004KT P6SM FEW060 SCT250
     FM231600 14009KT P6SM SCT060 SCT250=



000
FTUS44 KMOB 222340
TAFMOB
TAF
KMOB 222340Z 2300/2324 02006KT P6SM SCT060 SCT250
     FM231200 07005KT P6SM FEW060 SCT250
     FM231500 11008KT P6SM SCT060 SCT250=



000
FTUS44 KMOB 222340
TAFMOB
TAF
KMOB 222340Z 2300/2324 02006KT P6SM SCT060 SCT250
     FM231200 07005KT P6SM FEW060 SCT250
     FM231500 11008KT P6SM SCT060 SCT250=



000
FTUS44 KMOB 222340
TAFPNS
TAF
KPNS 222340Z 2300/2324 35007KT P6SM SCT060 SCT250
     FM230300 05004KT P6SM FEW060 SCT250
     FM231600 14009KT P6SM SCT060 SCT250=



000
FTUS44 KMOB 222340
TAFPNS
TAF
KPNS 222340Z 2300/2324 35007KT P6SM SCT060 SCT250
     FM230300 05004KT P6SM FEW060 SCT250
     FM231600 14009KT P6SM SCT060 SCT250=



000
FTUS44 KMOB 222340
TAFMOB
TAF
KMOB 222340Z 2300/2324 02006KT P6SM SCT060 SCT250
     FM231200 07005KT P6SM FEW060 SCT250
     FM231500 11008KT P6SM SCT060 SCT250=



000
FTUS44 KMOB 221739
TAFPNS
TAF
KPNS 221739Z 2218/2318 03008KT P6SM FEW060 SCT120 SCT300
     FM222100 VRB05KT P6SM FEW060 SCT300
     FM231500 10008KT P6SM FEW060 SCT300=



000
FTUS44 KMOB 221739
TAFMOB
TAF
KMOB 221739Z 2218/2318 04007KT P6SM FEW060 SCT120 SCT300
     FM222200 VRB05KT P6SM FEW060 SCT300
     FM231500 10010KT P6SM FEW060 SCT300=



000
FTUS44 KMOB 221739
TAFMOB
TAF
KMOB 221739Z 2218/2318 04007KT P6SM FEW060 SCT120 SCT300
     FM222200 VRB05KT P6SM FEW060 SCT300
     FM231500 10010KT P6SM FEW060 SCT300=



000
FTUS44 KMOB 221739
TAFMOB
TAF
KMOB 221739Z 2218/2318 04007KT P6SM FEW060 SCT120 SCT300
     FM222200 VRB05KT P6SM FEW060 SCT300
     FM231500 10010KT P6SM FEW060 SCT300=



000
FTUS44 KMOB 221739
TAFPNS
TAF
KPNS 221739Z 2218/2318 03008KT P6SM FEW060 SCT120 SCT300
     FM222100 VRB05KT P6SM FEW060 SCT300
     FM231500 10008KT P6SM FEW060 SCT300=



000
FTUS44 KMOB 221739
TAFPNS
TAF
KPNS 221739Z 2218/2318 03008KT P6SM FEW060 SCT120 SCT300
     FM222100 VRB05KT P6SM FEW060 SCT300
     FM231500 10008KT P6SM FEW060 SCT300=



000
FTUS44 KMOB 221739
TAFPNS
TAF
KPNS 221739Z 2218/2318 03008KT P6SM FEW060 SCT120 SCT300
     FM222100 VRB05KT P6SM FEW060 SCT300
     FM231500 10008KT P6SM FEW060 SCT300=



000
FTUS44 KMOB 221739
TAFMOB
TAF
KMOB 221739Z 2218/2318 04007KT P6SM FEW060 SCT120 SCT300
     FM222200 VRB05KT P6SM FEW060 SCT300
     FM231500 10010KT P6SM FEW060 SCT300=



000
FTUS44 KMOB 221139
TAFMOB
TAF
KMOB 221139Z 2212/2312 03009KT P6SM SCT120
     FM221800 03006KT P6SM SCT250=



000
FTUS44 KMOB 221139
TAFMOB
TAF
KMOB 221139Z 2212/2312 03009KT P6SM SCT120
     FM221800 03006KT P6SM SCT250=



000
FTUS44 KMOB 221139
TAFPNS
TAF
KPNS 221139Z 2212/2312 01004KT P6SM SCT120
     FM221800 36010KT P6SM SCT250=



000
FTUS44 KMOB 221139
TAFMOB
TAF
KMOB 221139Z 2212/2312 03009KT P6SM SCT120
     FM221800 03006KT P6SM SCT250=



000
FTUS44 KMOB 221139
TAFPNS
TAF
KPNS 221139Z 2212/2312 01004KT P6SM SCT120
     FM221800 36010KT P6SM SCT250=



000
FTUS44 KMOB 221139
TAFPNS
TAF
KPNS 221139Z 2212/2312 01004KT P6SM SCT120
     FM221800 36010KT P6SM SCT250=



000
FTUS44 KMOB 221139
TAFMOB
TAF
KMOB 221139Z 2212/2312 03009KT P6SM SCT120
     FM221800 03006KT P6SM SCT250=



000
FTUS44 KMOB 221139
TAFPNS
TAF
KPNS 221139Z 2212/2312 01004KT P6SM SCT120
     FM221800 36010KT P6SM SCT250=



000
FTUS44 KMOB 220526
TAFPNS
TAF
KPNS 220526Z 2206/2306 01004KT P6SM SCT120
     FM221800 36010KT P6SM SCT250=



000
FTUS44 KMOB 220526
TAFMOB
TAF
KMOB 220526Z 2206/2306 03009KT P6SM SCT120
     FM221800 03006KT P6SM SCT250=



000
FTUS44 KMOB 220526
TAFMOB
TAF
KMOB 220526Z 2206/2306 03009KT P6SM SCT120
     FM221800 03006KT P6SM SCT250=



000
FTUS44 KMOB 220526
TAFMOB
TAF
KMOB 220526Z 2206/2306 03009KT P6SM SCT120
     FM221800 03006KT P6SM SCT250=



000
FTUS44 KMOB 220526
TAFPNS
TAF
KPNS 220526Z 2206/2306 01004KT P6SM SCT120
     FM221800 36010KT P6SM SCT250=



000
FTUS44 KMOB 220526
TAFPNS
TAF
KPNS 220526Z 2206/2306 01004KT P6SM SCT120
     FM221800 36010KT P6SM SCT250=



000
FTUS44 KMOB 212331
TAFMOB
TAF
KMOB 212331Z 2200/2224 01006KT P6SM VCTS SCT030CB BKN060 BKN200
     FM220300 01006KT P6SM SCT025 SCT100
     FM220900 02011KT 6SM BR OVC250
     FM221500 02009KT P6SM SCT250=



000
FTUS44 KMOB 212331
TAFPNS
TAF
KPNS 212331Z 2200/2224 25004KT P6SM VCTS SCT030CB
     FM220300 36006KT P6SM SCT025 BKN100
     FM220900 01009KT 6SM BR OVC250
     FM221500 36010KT P6SM SCT250=



000
FTUS44 KMOB 212331
TAFPNS
TAF
KPNS 212331Z 2200/2224 25004KT P6SM VCTS SCT030CB
     FM220300 36006KT P6SM SCT025 BKN100
     FM220900 01009KT 6SM BR OVC250
     FM221500 36010KT P6SM SCT250=



000
FTUS44 KMOB 212331
TAFMOB
TAF
KMOB 212331Z 2200/2224 01006KT P6SM VCTS SCT030CB BKN060 BKN200
     FM220300 01006KT P6SM SCT025 SCT100
     FM220900 02011KT 6SM BR OVC250
     FM221500 02009KT P6SM SCT250=



000
FTUS44 KMOB 212331
TAFMOB
TAF
KMOB 212331Z 2200/2224 01006KT P6SM VCTS SCT030CB BKN060 BKN200
     FM220300 01006KT P6SM SCT025 SCT100
     FM220900 02011KT 6SM BR OVC250
     FM221500 02009KT P6SM SCT250=



000
FTUS44 KMOB 212331
TAFPNS
TAF
KPNS 212331Z 2200/2224 25004KT P6SM VCTS SCT030CB
     FM220300 36006KT P6SM SCT025 BKN100
     FM220900 01009KT 6SM BR OVC250
     FM221500 36010KT P6SM SCT250=



000
FTUS44 KMOB 212331
TAFMOB
TAF
KMOB 212331Z 2200/2224 01006KT P6SM VCTS SCT030CB BKN060 BKN200
     FM220300 01006KT P6SM SCT025 SCT100
     FM220900 02011KT 6SM BR OVC250
     FM221500 02009KT P6SM SCT250=



000
FTUS44 KMOB 212331
TAFPNS
TAF
KPNS 212331Z 2200/2224 25004KT P6SM VCTS SCT030CB
     FM220300 36006KT P6SM SCT025 BKN100
     FM220900 01009KT 6SM BR OVC250
     FM221500 36010KT P6SM SCT250=



    US Dept of Commerce
    National Oceanic and Atmospheric Administration
    National Weather Service
    1325 East West Highway
    Silver Spring, MD 20910
    Page Author: NWS Internet Services Team
Disclaimer
Information Quality
Credits
Glossary
Privacy Policy
Freedom of Information Act (FOIA)
About Us
Career Opportunities